PWSweather.com
Personal Weather Stations
Station Observations

AwhituWaiuku, CA 268400

Lat: -37.058, Lon: -174.6346

Elevation: 250

Station Type: Personal

http://www.weather-display.com/windy/gb/grahamsbeach.htm

High Low Average
Temperature 62.4°F16.9°C 50.3°F10.2°C 57.1°F13.9°C
Dew Point 61.9°F16.6°C 49.8°F9.9°C 56.5°F13.6°C
Winds 23.0 mph 37.0 kmh 5.8 mph 9.3 kmh 17.0 mph SW27.4 kmh SW
Wind Gusts 29.9 mph48.1 kmh 6.9 mph11.1 kmh 22.0 mph35.4 kmh
Humidity 98% 98% 98%
Pressure 30.12 in1020.0 mb 29.90 in1012.5 mb -
Precipitation 0.00 in0.0 mm - -
Hour Temp Dew Point Humidity Winds Wind Gusts Pressure Precip Precip Rate Daily Precip Total
12:00 AM 59.1°F15.1°C 58.5°F14.7°C 98% 18.4 mph WSW29.6 kmh WSW 23.0 mph37.0 kmh 29.94 in1013.9 mb 0.00 in0.0 mm 0.00 in/hr0.0 mm/hr 0.00 in0.0 mm
12:30 AM 56.5°F13.6°C 55.9°F13.3°C 98% 17.3 mph WSW27.8 kmh WSW 25.3 mph40.7 kmh 29.95 in1014.2 mb 0.00 in0.0 mm 0.00 in/hr0.0 mm/hr 0.00 in0.0 mm
01:00 AM 57.7°F14.3°C 57.1°F13.9°C 98% 15.0 mph WSW24.1 kmh WSW 16.1 mph25.9 kmh 29.93 in1013.5 mb 0.00 in0.0 mm 0.00 in/hr0.0 mm/hr 0.00 in0.0 mm
01:30 AM 57.8°F14.3°C 57.2°F14.0°C 98% 18.4 mph WSW29.6 kmh WSW 21.9 mph35.2 kmh 29.92 in1013.2 mb 0.00 in0.0 mm 0.00 in/hr0.0 mm/hr 0.00 in0.0 mm
02:00 AM 57.5°F14.2°C 56.9°F13.8°C 98% 21.9 mph WSW35.2 kmh WSW 26.5 mph42.6 kmh 29.92 in1013.2 mb 0.00 in0.0 mm 0.00 in/hr0.0 mm/hr 0.00 in0.0 mm
02:30 AM 57.3°F14.1°C 56.7°F13.7°C 98% 15.0 mph WSW24.1 kmh WSW 16.1 mph25.9 kmh 29.92 in1013.2 mb 0.00 in0.0 mm 0.00 in/hr0.0 mm/hr 0.00 in0.0 mm
03:00 AM 57.0°F13.9°C 56.4°F13.6°C 98% 18.4 mph WSW29.6 kmh WSW 21.9 mph35.2 kmh 29.91 in1012.9 mb 0.00 in0.0 mm 0.00 in/hr0.0 mm/hr 0.00 in0.0 mm
03:30 AM 57.3°F14.1°C 56.8°F13.8°C 98% 15.0 mph WSW24.1 kmh WSW 21.9 mph35.2 kmh 29.91 in1012.9 mb 0.00 in0.0 mm 0.00 in/hr0.0 mm/hr 0.00 in0.0 mm
04:00 AM 57.7°F14.3°C 57.1°F13.9°C 98% 17.3 mph W27.8 kmh W 21.9 mph35.2 kmh 29.90 in1012.5 mb 0.00 in0.0 mm 0.00 in/hr0.0 mm/hr 0.00 in0.0 mm
04:30 AM 58.0°F14.4°C 57.4°F14.1°C 98% 15.0 mph WSW24.1 kmh WSW 20.7 mph33.3 kmh 29.91 in1012.9 mb 0.00 in0.0 mm 0.00 in/hr0.0 mm/hr 0.00 in0.0 mm
05:00 AM 56.1°F13.4°C 55.6°F13.1°C 98% 21.9 mph W35.2 kmh W 26.5 mph42.6 kmh 29.91 in1012.9 mb 0.00 in0.0 mm 0.00 in/hr0.0 mm/hr 0.00 in0.0 mm
05:30 AM 56.3°F13.5°C 55.7°F13.2°C 98% 19.6 mph WSW31.5 kmh WSW 23.0 mph37.0 kmh 29.92 in1013.2 mb 0.00 in0.0 mm 0.00 in/hr0.0 mm/hr 0.00 in0.0 mm
06:00 AM 55.8°F13.2°C 55.3°F12.9°C 98% 15.0 mph WSW24.1 kmh WSW 19.6 mph31.5 kmh 29.93 in1013.5 mb 0.00 in0.0 mm 0.00 in/hr0.0 mm/hr 0.00 in0.0 mm
06:30 AM 56.4°F13.6°C 55.8°F13.2°C 98% 17.3 mph SW27.8 kmh SW 21.9 mph35.2 kmh 29.93 in1013.5 mb 0.00 in0.0 mm 0.00 in/hr0.0 mm/hr 0.00 in0.0 mm
07:00 AM 57.3°F14.1°C 56.7°F13.7°C 98% 13.8 mph SW22.2 kmh SW 19.6 mph31.5 kmh 29.94 in1013.9 mb 0.00 in0.0 mm 0.00 in/hr0.0 mm/hr 0.00 in0.0 mm
07:30 AM 56.8°F13.8°C 56.3°F13.5°C 98% 20.7 mph WSW33.3 kmh WSW 25.3 mph40.7 kmh 29.94 in1013.9 mb 0.00 in0.0 mm 0.00 in/hr0.0 mm/hr 0.00 in0.0 mm
08:00 AM 58.0°F14.4°C 57.4°F14.1°C 98% 23.0 mph WSW37.0 kmh WSW 26.5 mph42.6 kmh 29.94 in1013.9 mb 0.00 in0.0 mm 0.00 in/hr0.0 mm/hr 0.00 in0.0 mm
08:30 AM 57.0°F13.9°C 56.5°F13.6°C 98% 23.0 mph W37.0 kmh W 23.0 mph37.0 kmh 29.95 in1014.2 mb 0.00 in0.0 mm 0.00 in/hr0.0 mm/hr 0.00 in0.0 mm
09:00 AM 59.4°F15.2°C 58.9°F14.9°C 98% 20.7 mph WSW33.3 kmh WSW 21.9 mph35.2 kmh 29.95 in1014.2 mb 0.00 in0.0 mm 0.00 in/hr0.0 mm/hr 0.00 in0.0 mm
09:30 AM 60.1°F15.6°C 59.5°F15.3°C 98% 20.7 mph WSW33.3 kmh WSW 29.9 mph48.1 kmh 29.96 in1014.6 mb 0.00 in0.0 mm 0.00 in/hr0.0 mm/hr 0.00 in0.0 mm
10:00 AM 60.0°F15.6°C 59.4°F15.2°C 98% 17.3 mph WSW27.8 kmh WSW 20.7 mph33.3 kmh 29.96 in1014.6 mb 0.00 in0.0 mm 0.00 in/hr0.0 mm/hr 0.00 in0.0 mm
10:30 AM 61.8°F16.6°C 61.2°F16.2°C 98% 17.3 mph SW27.8 kmh SW 17.3 mph27.8 kmh 29.96 in1014.6 mb 0.00 in0.0 mm 0.00 in/hr0.0 mm/hr 0.00 in0.0 mm
11:00 AM 62.3°F16.8°C 61.7°F16.5°C 98% 17.3 mph W27.8 kmh W 20.7 mph33.3 kmh 29.95 in1014.2 mb 0.00 in0.0 mm 0.00 in/hr0.0 mm/hr 0.00 in0.0 mm
11:30 AM 62.4°F16.9°C 61.9°F16.6°C 98% 17.3 mph W27.8 kmh W 20.7 mph33.3 kmh 29.95 in1014.2 mb 0.00 in0.0 mm 0.00 in/hr0.0 mm/hr 0.00 in0.0 mm
12:00 PM 57.9°F14.4°C 57.4°F14.1°C 98% 17.3 mph WSW27.8 kmh WSW 24.2 mph38.9 kmh 29.96 in1014.6 mb 0.00 in0.0 mm 0.00 in/hr0.0 mm/hr 0.00 in0.0 mm
12:30 PM 57.8°F14.3°C 57.3°F14.1°C 98% 17.3 mph SW27.8 kmh SW 25.3 mph40.7 kmh 29.95 in1014.2 mb 0.00 in0.0 mm 0.00 in/hr0.0 mm/hr 0.00 in0.0 mm
01:00 PM 58.7°F14.8°C 58.2°F14.6°C 98% 17.3 mph SW27.8 kmh SW 27.6 mph44.4 kmh 29.96 in1014.6 mb 0.00 in0.0 mm 0.00 in/hr0.0 mm/hr 0.00 in0.0 mm
01:30 PM 58.4°F14.7°C 57.9°F14.4°C 98% 23.0 mph SW37.0 kmh SW 29.9 mph48.1 kmh 29.96 in1014.6 mb 0.00 in0.0 mm 0.00 in/hr0.0 mm/hr 0.00 in0.0 mm
02:00 PM 59.1°F15.1°C 58.5°F14.7°C 98% 17.3 mph SW27.8 kmh SW 26.5 mph42.6 kmh 29.95 in1014.2 mb 0.00 in0.0 mm 0.00 in/hr0.0 mm/hr 0.00 in0.0 mm
03:00 PM 58.7°F14.8°C 58.2°F14.6°C 98% 21.9 mph SW35.2 kmh SW 27.6 mph44.4 kmh 29.95 in1014.2 mb 0.00 in0.0 mm 0.00 in/hr0.0 mm/hr 0.00 in0.0 mm
03:30 PM 57.3°F14.1°C 56.7°F13.7°C 98% 18.4 mph SW29.6 kmh SW 23.0 mph37.0 kmh 29.95 in1014.2 mb 0.00 in0.0 mm 0.00 in/hr0.0 mm/hr 0.00 in0.0 mm
04:00 PM 58.5°F14.7°C 57.9°F14.4°C 98% 17.3 mph SSW27.8 kmh SSW 19.6 mph31.5 kmh 29.95 in1014.2 mb 0.00 in0.0 mm 0.00 in/hr0.0 mm/hr 0.00 in0.0 mm
04:30 PM 57.5°F14.2°C 56.9°F13.8°C 98% 16.1 mph SW25.9 kmh SW 21.9 mph35.2 kmh 29.95 in1014.2 mb 0.00 in0.0 mm 0.00 in/hr0.0 mm/hr 0.00 in0.0 mm
05:00 PM 57.4°F14.1°C 56.9°F13.8°C 98% 21.9 mph SW35.2 kmh SW 29.9 mph48.1 kmh 29.95 in1014.2 mb 0.00 in0.0 mm 0.00 in/hr0.0 mm/hr 0.00 in0.0 mm
05:30 PM 56.4°F13.6°C 55.8°F13.2°C 98% 17.3 mph SW27.8 kmh SW 27.6 mph44.4 kmh 29.96 in1014.6 mb 0.00 in0.0 mm 0.00 in/hr0.0 mm/hr 0.00 in0.0 mm
06:00 PM 56.5°F13.6°C 55.9°F13.3°C 98% 17.3 mph SW27.8 kmh SW 27.6 mph44.4 kmh 29.97 in1014.9 mb 0.00 in0.0 mm 0.00 in/hr0.0 mm/hr 0.00 in0.0 mm
06:30 PM 55.7°F13.2°C 55.1°F12.8°C 98% 20.7 mph SW33.3 kmh SW 28.8 mph46.3 kmh 29.98 in1015.2 mb 0.00 in0.0 mm 0.00 in/hr0.0 mm/hr 0.00 in0.0 mm
07:00 PM 55.4°F13.0°C 54.8°F12.7°C 98% 20.7 mph SW33.3 kmh SW 27.6 mph44.4 kmh 29.99 in1015.6 mb 0.00 in0.0 mm 0.00 in/hr0.0 mm/hr 0.00 in0.0 mm
07:30 PM 55.4°F13.0°C 54.8°F12.7°C 98% 16.1 mph SW25.9 kmh SW 18.4 mph29.6 kmh 30.01 in1016.3 mb 0.00 in0.0 mm 0.00 in/hr0.0 mm/hr 0.00 in0.0 mm
08:00 PM 55.2°F12.9°C 54.6°F12.6°C 98% 15.0 mph SW24.1 kmh SW 17.3 mph27.8 kmh 30.03 in1016.9 mb 0.00 in0.0 mm 0.00 in/hr0.0 mm/hr 0.00 in0.0 mm
08:30 PM 55.2°F12.9°C 54.7°F12.6°C 98% 15.0 mph S24.1 kmh S 15.0 mph24.1 kmh 30.04 in1017.3 mb 0.00 in0.0 mm 0.00 in/hr0.0 mm/hr 0.00 in0.0 mm
09:00 PM 55.4°F13.0°C 54.9°F12.7°C 98% 15.0 mph S24.1 kmh S 15.0 mph24.1 kmh 30.05 in1017.6 mb 0.00 in0.0 mm 0.00 in/hr0.0 mm/hr 0.00 in0.0 mm
09:30 PM 53.8°F12.1°C 53.3°F11.8°C 98% 6.9 mph SSE11.1 kmh SSE 9.2 mph14.8 kmh 30.06 in1017.9 mb 0.00 in0.0 mm 0.00 in/hr0.0 mm/hr 0.00 in0.0 mm
10:00 PM 52.9°F11.6°C 52.4°F11.3°C 98% 5.8 mph SSE9.3 kmh SSE 6.9 mph11.1 kmh 30.08 in1018.6 mb 0.00 in0.0 mm 0.00 in/hr0.0 mm/hr 0.00 in0.0 mm
10:30 PM 52.4°F11.3°C 51.9°F11.1°C 98% 8.1 mph SSE13.0 kmh SSE 12.7 mph20.4 kmh 30.09 in1019.0 mb 0.00 in0.0 mm 0.00 in/hr0.0 mm/hr 0.00 in0.0 mm
11:00 PM 51.5°F10.8°C 51.0°F10.6°C 98% 9.2 mph SE14.8 kmh SE 11.5 mph18.5 kmh 30.11 in1019.6 mb 0.00 in0.0 mm 0.00 in/hr0.0 mm/hr 0.00 in0.0 mm
11:30 PM 50.3°F10.2°C 49.8°F9.9°C 98% 6.9 mph SE11.1 kmh SE 10.4 mph16.7 kmh 30.12 in1020.0 mb 0.00 in0.0 mm 0.00 in/hr0.0 mm/hr 0.00 in0.0 mm